Time;durP1;ratioP1;P1;durP2;ratioP2;P2;SDS_P1;SDS_P2;PMS_P1;PMS_P2;Temp;Humidity;BMP_temperature;BMP_pressure;BME280_temperature;BME280_humidity;BME280_pressure;Samples;Min_cycle;Max_cycle;Signal;HPM_P1;HPM_P2
2022/08/19 00:01:49;;;;;;;13.18;7.53;;;15.10;99.90;;;;;;6070274;23;20069;-87
2022/08/19 00:04:17;;;;;;;13.40;7.45;;;15.10;99.90;;;;;;6070856;23;20030;-88
2022/08/19 00:06:44;;;;;;;13.18;9.38;;;15.10;99.90;;;;;;6071539;23;20030;-88
2022/08/19 00:09:14;;;;;;;13.50;7.80;;;15.00;99.90;;;;;;6069907;23;20017;-88
2022/08/19 00:11:41;;;;;;;12.07;8.52;;;15.00;99.90;;;;;;6070941;23;20029;-88
2022/08/19 00:14:09;;;;;;;13.38;7.68;;;15.00;99.90;;;;;;6070284;23;20026;-87
2022/08/19 00:16:36;;;;;;;12.02;7.50;;;15.00;99.90;;;;;;6069885;23;20037;-88
2022/08/19 00:19:03;;;;;;;11.38;7.65;;;15.10;99.90;;;;;;6070928;23;20024;-88
2022/08/19 00:21:29;;;;;;;12.05;8.48;;;15.00;99.90;;;;;;6070137;23;20018;-87
2022/08/19 00:23:58;;;;;;;10.52;7.18;;;15.00;99.90;;;;;;6070711;23;20300;-87
2022/08/19 00:26:25;;;;;;;5.60;3.75;;;15.00;99.90;;;;;;6070615;23;20017;-88
2022/08/19 00:28:51;;;;;;;8.70;4.22;;;15.00;99.90;;;;;;6070170;23;20047;-88
2022/08/19 00:31:17;;;;;;;11.32;5.05;;;15.00;99.90;;;;;;6069760;23;20039;-87
2022/08/19 00:33:43;;;;;;;6.68;4.80;;;15.00;99.90;;;;;;6070460;23;20057;-88
2022/08/19 00:36:10;;;;;;;8.02;4.68;;;15.00;99.90;;;;;;6069112;23;20101;-87
2022/08/19 00:38:42;;;;;;;9.43;5.03;;;14.90;99.90;;;;;;6070518;23;20077;-87
2022/08/19 00:41:10;;;;;;;6.78;4.63;;;14.90;99.90;;;;;;6070020;23;20018;-88
2022/08/19 00:43:35;;;;;;;3.78;2.33;;;14.80;99.90;;;;;;6069458;23;20029;-88
2022/08/19 00:46:04;;;;;;;4.75;2.28;;;14.80;99.90;;;;;;6070073;23;20073;-88
2022/08/19 00:48:31;;;;;;;3.08;1.98;;;14.70;99.90;;;;;;6069976;23;20037;-87
2022/08/19 00:50:58;;;;;;;2.72;1.10;;;14.60;99.90;;;;;;6069287;23;20089;-88
2022/08/19 00:53:27;;;;;;;3.10;1.90;;;14.60;99.90;;;;;;6069429;23;20048;-87
2022/08/19 00:55:56;;;;;;;4.88;1.90;;;14.60;99.90;;;;;;6070333;23;20026;-87
2022/08/19 00:58:27;;;;;;;4.07;2.83;;;14.40;99.90;;;;;;6068549;23;20101;-89
2022/08/19 01:00:53;;;;;;;5.53;3.60;;;14.50;99.90;;;;;;6070283;23;20022;-87
2022/08/19 01:03:21;;;;;;;5.95;3.53;;;14.50;99.90;;;;;;6070241;23;20032;-87
2022/08/19 01:05:48;;;;;;;5.45;3.97;;;14.50;99.90;;;;;;6069872;23;20060;-88
2022/08/19 01:08:15;;;;;;;7.53;4.43;;;14.40;99.90;;;;;;6069959;23;20025;-87
2022/08/19 01:10:45;;;;;;;9.15;3.88;;;14.40;99.90;;;;;;6069533;23;20010;-87
2022/08/19 01:13:15;;;;;;;6.50;3.65;;;14.40;99.90;;;;;;6069513;23;20018;-88
2022/08/19 01:15:48;;;;;;;9.38;5.25;;;14.40;99.90;;;;;;6093975;23;20436;-88
2022/08/19 01:18:17;;;;;;;7.20;3.38;;;14.40;99.90;;;;;;6069769;23;20074;-87
2022/08/19 01:20:43;;;;;;;7.80;4.72;;;14.40;99.90;;;;;;6069953;23;20021;-87
2022/08/19 01:23:09;;;;;;;5.40;3.55;;;14.40;99.90;;;;;;6070301;23;20076;-88
2022/08/19 01:25:41;;;;;;;4.20;2.20;;;14.30;99.90;;;;;;6070523;23;20081;-88
2022/08/19 01:28:07;;;;;;;4.85;3.22;;;14.30;99.90;;;;;;6071595;23;20028;-88
2022/08/19 01:30:35;;;;;;;9.13;4.80;;;14.30;99.90;;;;;;6071184;23;20060;-87
2022/08/19 01:33:02;;;;;;;7.38;3.58;;;14.30;99.90;;;;;;6071640;23;20073;-88
2022/08/19 01:35:30;;;;;;;7.50;4.25;;;14.20;99.90;;;;;;6071906;23;20017;-88
2022/08/19 01:38:00;;;;;;;7.45;2.60;;;14.20;99.90;;;;;;6072048;23;20026;-88
2022/08/19 01:40:30;;;;;;;3.40;1.60;;;14.20;99.90;;;;;;6070738;23;20021;-87
2022/08/19 01:42:56;;;;;;;5.72;2.10;;;14.10;99.90;;;;;;6071643;23;20018;-87
2022/08/19 01:45:25;;;;;;;3.70;1.40;;;14.10;99.90;;;;;;6070970;23;20111;-87
2022/08/19 01:47:51;;;;;;;2.78;1.40;;;14.10;99.90;;;;;;6071388;23;20025;-87
2022/08/19 01:50:17;;;;;;;3.33;2.30;;;14.00;99.90;;;;;;6071736;23;20061;-87
2022/08/19 01:52:44;;;;;;;4.35;2.25;;;14.00;99.90;;;;;;6070788;23;20010;-87
2022/08/19 01:55:14;;;;;;;6.53;2.60;;;14.00;99.90;;;;;;6071680;23;20080;-87
2022/08/19 01:57:43;;;;;;;5.55;1.85;;;14.00;99.90;;;;;;6070915;23;20024;-88
2022/08/19 02:00:11;;;;;;;6.45;2.33;;;13.90;99.90;;;;;;6071071;23;20018;-87
2022/08/19 02:02:37;;;;;;;6.25;2.05;;;13.90;99.90;;;;;;6070917;23;20017;-87
2022/08/19 02:05:04;;;;;;;5.85;2.67;;;13.90;99.90;;;;;;6071694;23;20025;-87
2022/08/19 02:07:29;;;;;;;3.50;2.20;;;13.80;99.90;;;;;;6070372;23;20022;-88
2022/08/19 02:09:55;;;;;;;2.60;1.20;;;13.90;99.90;;;;;;6072443;23;20105;-87
2022/08/19 02:12:21;;;;;;;2.05;0.90;;;13.80;99.90;;;;;;6070701;23;20080;-88
2022/08/19 02:14:47;;;;;;;1.50;1.17;;;13.80;99.90;;;;;;6071083;23;20398;-88
2022/08/19 02:17:14;;;;;;;3.58;1.10;;;13.80;99.90;;;;;;6019152;23;20023;-87
2022/08/19 02:19:40;;;;;;;10.57;3.00;;;13.80;99.90;;;;;;6042653;23;20459;-88
2022/08/19 02:22:06;;;;;;;5.57;2.30;;;13.80;99.90;;;;;;6041835;23;20022;-88
2022/08/19 02:24:32;;;;;;;6.63;2.00;;;13.70;99.90;;;;;;6043007;23;20351;-88
2022/08/19 02:26:58;;;;;;;1.55;1.00;;;13.70;99.90;;;;;;6042421;23;20015;-88
2022/08/19 02:29:24;;;;;;;2.55;1.20;;;13.70;99.90;;;;;;6041869;23;20522;-87
2022/08/19 02:31:51;;;;;;;2.75;1.23;;;13.70;99.90;;;;;;6042090;23;20435;-87
2022/08/19 02:34:17;;;;;;;1.60;1.00;;;13.70;99.90;;;;;;6042691;23;20018;-88
2022/08/19 02:36:44;;;;;;;4.63;2.58;;;13.70;99.90;;;;;;6042053;23;20050;-87
2022/08/19 02:39:10;;;;;;;5.28;2.70;;;13.70;99.90;;;;;;6042440;23;20018;-88
2022/08/19 02:41:36;;;;;;;5.00;2.80;;;13.70;99.90;;;;;;6042670;23;20029;-88
2022/08/19 02:44:04;;;;;;;6.15;3.28;;;13.80;99.90;;;;;;6041350;23;20348;-88
2022/08/19 02:46:32;;;;;;;9.10;4.78;;;13.80;99.90;;;;;;6042386;23;20094;-87
2022/08/19 02:49:04;;;;;;;5.63;3.35;;;13.80;99.90;;;;;;6042629;23;20026;-87
2022/08/19 02:51:36;;;;;;;5.47;3.45;;;13.80;99.90;;;;;;6042512;23;20025;-88
2022/08/19 02:54:03;;;;;;;7.03;4.00;;;13.80;99.90;;;;;;6043235;23;20420;-88
2022/08/19 02:56:30;;;;;;;6.38;3.50;;;13.80;99.90;;;;;;6042094;23;20025;-88
2022/08/19 02:58:57;;;;;;;8.57;4.43;;;13.80;99.90;;;;;;6042139;23;20050;-88
2022/08/19 03:01:26;;;;;;;16.90;5.70;;;13.70;99.90;;;;;;6041639;23;20031;-88
2022/08/19 03:03:53;;;;;;;4.57;3.67;;;13.70;99.90;;;;;;6041381;23;20086;-88
2022/08/19 03:06:19;;;;;;;4.47;3.20;;;13.70;99.90;;;;;;6042625;23;20018;-88
2022/08/19 03:08:47;;;;;;;9.85;3.92;;;13.70;99.90;;;;;;6042527;23;20033;-88
2022/08/19 03:11:18;;;;;;;6.07;3.72;;;13.70;99.90;;;;;;6041716;23;20056;-88
2022/08/19 03:13:45;;;;;;;13.82;9.23;;;13.70;99.90;;;;;;6041507;23;20022;-87
2022/08/19 03:16:12;;;;;;;18.05;9.80;;;13.70;99.90;;;;;;6041710;23;20037;-88
2022/08/19 03:18:38;;;;;;;14.98;9.30;;;13.80;99.90;;;;;;6041056;23;20050;-88
2022/08/19 03:21:05;;;;;;;66.93;9.73;;;13.90;99.90;;;;;;6042612;23;20030;-87
2022/08/19 03:23:31;;;;;;;12.75;8.13;;;13.90;99.90;;;;;;6041914;23;20022;-87
2022/08/19 03:25:57;;;;;;;9.43;6.97;;;13.90;99.90;;;;;;6041484;23;20018;-87
2022/08/19 03:28:23;;;;;;;7.20;5.15;;;13.90;99.90;;;;;;6041836;23;20027;-89
2022/08/19 03:30:57;;;;;;;9.80;6.55;;;13.90;99.90;;;;;;6065761;23;20014;-88
2022/08/19 03:33:25;;;;;;;11.18;8.02;;;13.80;99.90;;;;;;6041352;23;20029;-88
2022/08/19 03:36:04;;;;;;;9.55;6.20;;;13.80;99.90;;;;;;6042225;23;20510;-88
2022/08/19 03:38:30;;;;;;;8.65;6.75;;;13.90;99.90;;;;;;6040751;23;20022;-88
2022/08/19 03:40:55;;;;;;;13.50;9.55;;;13.80;99.90;;;;;;6042473;23;20018;-88
2022/08/19 03:43:21;;;;;;;10.60;7.78;;;13.80;99.90;;;;;;6041256;23;20392;-88
2022/08/19 03:45:48;;;;;;;12.38;8.38;;;13.80;99.90;;;;;;6041180;23;20011;-87
2022/08/19 03:48:16;;;;;;;12.82;6.00;;;13.90;99.90;;;;;;6041771;23;20089;-88
2022/08/19 03:50:42;;;;;;;12.85;7.35;;;13.80;99.90;;;;;;6041712;23;20089;-88
2022/08/19 03:53:08;;;;;;;11.77;7.53;;;13.80;99.90;;;;;;6041350;23;20324;-87
2022/08/19 03:55:40;;;;;;;10.02;6.60;;;13.80;99.90;;;;;;6041764;23;20444;-88
2022/08/19 03:58:06;;;;;;;9.68;7.45;;;13.80;99.90;;;;;;6041612;23;20359;-88
2022/08/19 04:00:33;;;;;;;16.55;8.88;;;13.70;99.90;;;;;;6040833;23;20105;-88
2022/08/19 04:02:59;;;;;;;18.40;6.88;;;13.70;99.90;;;;;;6042186;23;20152;-88
2022/08/19 04:05:28;;;;;;;9.90;6.70;;;13.70;99.90;;;;;;6042440;23;20014;-89
2022/08/19 04:07:56;;;;;;;7.75;5.70;;;13.60;99.90;;;;;;6042052;23;20022;-88
2022/08/19 04:10:23;;;;;;;9.45;5.40;;;13.50;99.90;;;;;;6041704;23;20386;-88
2022/08/19 04:12:49;;;;;;;8.95;6.88;;;13.50;99.90;;;;;;6042290;23;20062;-87
2022/08/19 04:15:15;;;;;;;11.60;8.10;;;13.50;99.90;;;;;;6041147;23;20026;-87
2022/08/19 04:17:41;;;;;;;13.77;7.30;;;13.50;99.90;;;;;;6042291;23;20022;-89
2022/08/19 04:20:07;;;;;;;14.82;7.18;;;13.50;99.90;;;;;;6042233;23;20018;-88
2022/08/19 04:22:32;;;;;;;10.98;6.15;;;13.50;99.90;;;;;;6041029;23;20455;-89
2022/08/19 04:24:58;;;;;;;10.70;5.32;;;13.50;99.90;;;;;;6042634;23;20014;-88
2022/08/19 04:27:24;;;;;;;13.48;7.20;;;13.50;99.90;;;;;;6037921;23;20018;-91
2022/08/19 04:29:50;;;;;;;13.60;7.05;;;13.50;99.90;;;;;;6041504;23;20435;-87
2022/08/19 04:32:15;;;;;;;12.30;5.20;;;13.40;99.90;;;;;;6041073;23;20023;-88
2022/08/19 04:34:42;;;;;;;11.63;6.03;;;13.50;99.90;;;;;;6040974;23;20046;-88
2022/08/19 04:37:11;;;;;;;10.20;6.45;;;13.50;99.90;;;;;;6042035;23;20022;-89
2022/08/19 04:42:38;;;;;;;17.75;6.95;;;13.50;99.90;;;;;;6063825;23;20463;-88
2022/08/19 04:45:06;;;;;;;11.07;5.53;;;13.50;99.90;;;;;;6041700;23;20025;-88
2022/08/19 04:47:32;;;;;;;10.57;5.55;;;13.50;99.90;;;;;;6041964;23;20427;-88
2022/08/19 04:49:58;;;;;;;8.93;5.57;;;13.60;99.90;;;;;;6041823;23;20014;-88
2022/08/19 04:52:24;;;;;;;9.45;5.57;;;13.50;99.90;;;;;;6041395;23;20026;-88
2022/08/19 04:54:50;;;;;;;11.73;6.65;;;13.50;99.90;;;;;;6042886;23;20038;-89
2022/08/19 04:57:15;;;;;;;10.55;6.55;;;13.50;99.90;;;;;;6041598;23;20018;-88
2022/08/19 04:59:41;;;;;;;10.75;7.28;;;13.50;99.90;;;;;;6044328;23;20074;-88
2022/08/19 05:02:09;;;;;;;12.07;6.57;;;13.60;99.90;;;;;;6043134;23;20427;-88
2022/08/19 05:04:38;;;;;;;10.57;7.72;;;13.70;99.90;;;;;;6044910;23;20026;-88
2022/08/19 05:07:04;;;;;;;10.18;6.93;;;13.70;99.90;;;;;;6044895;23;20499;-89
2022/08/19 05:09:30;;;;;;;10.10;6.72;;;13.70;99.90;;;;;;6044646;23;20026;-89
2022/08/19 05:11:57;;;;;;;10.18;7.63;;;13.80;99.90;;;;;;6042433;23;20584;-90
2022/08/19 05:14:22;;;;;;;10.63;7.10;;;13.80;99.90;;;;;;6043673;23;20034;-89
2022/08/19 05:16:49;;;;;;;11.73;8.10;;;13.80;99.90;;;;;;6043275;23;20067;-89
2022/08/19 05:24:44;;;;;;;10.98;7.13;;;14.00;99.90;;;;;;6066773;23;20026;-89
2022/08/19 05:27:10;;;;;;;13.07;6.53;;;14.00;99.90;;;;;;6043312;23;20085;-89
2022/08/19 05:29:36;;;;;;;12.70;7.55;;;14.10;99.90;;;;;;6044338;23;20444;-88
2022/08/19 05:32:04;;;;;;;9.93;7.15;;;14.20;99.90;;;;;;6042323;23;20019;-88
2022/08/19 05:34:32;;;;;;;12.43;7.78;;;14.20;99.90;;;;;;6043846;23;20023;-88
2022/08/19 05:36:59;;;;;;;19.02;11.20;;;14.30;99.90;;;;;;6043792;23;20097;-89
2022/08/19 05:39:28;;;;;;;31.83;18.95;;;14.30;99.90;;;;;;6042657;23;20418;-88
2022/08/19 05:41:58;;;;;;;27.65;17.00;;;14.50;99.90;;;;;;6042659;23;20074;-88
2022/08/19 05:44:30;;;;;;;26.85;15.75;;;14.60;99.90;;;;;;6043234;23;20064;-88
2022/08/19 05:46:56;;;;;;;25.38;15.20;;;14.80;99.90;;;;;;6042537;23;20022;-88
2022/08/19 05:49:23;;;;;;;22.60;14.38;;;14.90;99.90;;;;;;6066586;23;20093;-89
2022/08/19 05:51:49;;;;;;;25.02;14.88;;;15.00;99.90;;;;;;6043334;23;20022;-87
2022/08/19 05:54:14;;;;;;;25.83;14.23;;;15.10;99.90;;;;;;6066635;23;20070;-88
2022/08/19 05:56:42;;;;;;;25.20;14.05;;;15.30;99.90;;;;;;6066530;23;20125;-87
2022/08/19 05:59:11;;;;;;;27.02;14.00;;;15.40;99.90;;;;;;6041583;23;20022;-88
2022/08/19 06:01:40;;;;;;;27.25;13.75;;;15.40;99.90;;;;;;6042216;23;20026;-87
2022/08/19 06:04:06;;;;;;;24.40;14.07;;;15.70;99.90;;;;;;6066790;23;20033;-88
2022/08/19 06:06:33;;;;;;;22.75;14.40;;;15.80;99.90;;;;;;6066125;23;20021;-87
2022/08/19 06:09:04;;;;;;;23.85;14.90;;;15.90;99.90;;;;;;6043052;23;20424;-88
2022/08/19 06:11:40;;;;;;;28.27;15.73;;;16.00;99.90;;;;;;6042207;23;20025;-88
2022/08/19 06:14:09;;;;;;;26.33;14.85;;;16.20;99.90;;;;;;6041471;23;20033;-88
2022/08/19 06:16:38;;;;;;;23.60;13.55;;;16.30;99.90;;;;;;6041665;23;20026;-88
2022/08/19 06:19:07;;;;;;;17.75;12.07;;;16.40;99.90;;;;;;6043045;23;20022;-88
2022/08/19 06:21:34;;;;;;;18.80;12.38;;;16.50;99.90;;;;;;6041688;23;20027;-87
2022/08/19 06:24:00;;;;;;;24.83;13.23;;;16.70;99.90;;;;;;6043372;23;20022;-88
2022/08/19 06:26:27;;;;;;;21.67;12.70;;;16.70;99.90;;;;;;6065982;23;20187;-88
2022/08/19 06:28:52;;;;;;;19.38;12.20;;;16.80;99.90;;;;;;6066390;23;20525;-88
2022/08/19 06:31:22;;;;;;;19.33;12.18;;;17.00;99.90;;;;;;6066085;23;20019;-88
2022/08/19 06:33:48;;;;;;;20.83;12.00;;;17.10;99.90;;;;;;6043693;23;20022;-89
2022/08/19 06:36:19;;;;;;;23.13;11.75;;;17.20;99.90;;;;;;6065461;23;20316;-88
2022/08/19 06:38:44;;;;;;;24.33;14.13;;;17.40;99.90;;;;;;6043058;23;20028;-88
2022/08/19 06:41:11;;;;;;;19.35;12.88;;;17.40;99.90;;;;;;6065860;23;20019;-89
2022/08/19 06:43:37;;;;;;;16.73;11.75;;;17.60;99.90;;;;;;6066027;23;20023;-88
2022/08/19 06:46:03;;;;;;;15.20;10.27;;;17.60;99.90;;;;;;6066119;23;20094;-89
2022/08/19 06:48:30;;;;;;;15.70;9.90;;;17.70;99.90;;;;;;6089080;23;20019;-88
2022/08/19 06:51:56;;;;;;;17.80;10.07;;;17.80;99.90;;;;;;6043747;23;20069;-94
2022/08/19 06:54:37;;;;;;;20.17;10.50;;;17.90;99.90;;;;;;5998865;23;20027;-93
2022/08/19 06:57:13;;;;;;;13.73;9.60;;;18.10;99.90;;;;;;6013164;23;20033;-93
2022/08/19 06:59:45;;;;;;;17.33;9.82;;;18.20;99.90;;;;;;6017612;23;20019;-92
2022/08/19 07:02:10;;;;;;;14.13;9.07;;;18.30;99.90;;;;;;6063627;23;20042;-92
2022/08/19 07:04:39;;;;;;;15.57;10.07;;;18.40;99.90;;;;;;6062810;23;20046;-92
2022/08/19 07:07:11;;;;;;;14.40;9.65;;;18.50;99.90;;;;;;6063201;23;20029;-92
2022/08/19 07:09:39;;;;;;;15.63;9.50;;;18.60;99.90;;;;;;6062040;23;20019;-92
2022/08/19 07:12:07;;;;;;;14.18;9.75;;;18.70;99.90;;;;;;6062749;23;20027;-92
2022/08/19 07:14:48;;;;;;;13.48;9.20;;;18.80;99.90;;;;;;6062843;23;20511;-92
2022/08/19 07:17:26;;;;;;;15.32;9.18;;;18.90;99.90;;;;;;6060846;23;20482;-93
2022/08/19 07:19:57;;;;;;;14.90;9.07;;;18.90;99.90;;;;;;6068072;23;20042;-91
2022/08/19 07:22:25;;;;;;;14.52;8.30;;;19.10;99.90;;;;;;6059604;23;20106;-90
2022/08/19 07:24:52;;;;;;;12.07;8.48;;;19.20;99.90;;;;;;6060777;23;20019;-91
2022/08/19 07:27:19;;;;;;;14.10;7.68;;;19.30;99.90;;;;;;6059878;23;20074;-91
2022/08/19 07:29:45;;;;;;;14.65;8.00;;;19.40;99.90;;;;;;6035253;23;20024;-92
2022/08/19 07:32:11;;;;;;;13.18;7.85;;;19.50;99.90;;;;;;6060882;23;20042;-92
2022/08/19 07:34:37;;;;;;;12.48;7.97;;;19.60;99.90;;;;;;6062699;23;20034;-93
2022/08/19 07:37:05;;;;;;;14.57;7.97;;;19.60;99.90;;;;;;6062491;23;20023;-91
2022/08/19 07:39:33;;;;;;;14.23;7.82;;;19.70;99.90;;;;;;6061289;23;20117;-92
2022/08/19 07:42:01;;;;;;;14.50;7.47;;;19.80;99.90;;;;;;6059887;23;20030;-92
2022/08/19 07:44:27;;;;;;;10.90;7.60;;;19.90;99.90;;;;;;6059718;23;20041;-93
2022/08/19 07:47:06;;;;;;;14.30;7.90;;;20.00;99.90;;;;;;6038250;23;20007;-91
2022/08/19 07:49:39;;;;;;;17.35;7.30;;;20.10;99.90;;;;;;6059864;23;20034;-92
2022/08/19 07:52:16;;;;;;;14.10;7.40;;;20.30;99.90;;;;;;6059019;23;20460;-91
2022/08/19 07:54:42;;;;;;;12.10;7.03;;;20.30;99.90;;;;;;6037575;23;20082;-91
2022/08/19 07:57:14;;;;;;;12.13;7.07;;;20.40;99.90;;;;;;6035538;23;20026;-91
2022/08/19 07:59:40;;;;;;;12.37;7.33;;;20.50;99.90;;;;;;6059654;23;20023;-91
2022/08/19 08:02:06;;;;;;;11.05;6.75;;;20.60;99.90;;;;;;6059614;23;20479;-91
2022/08/19 08:10:06;;;;;;;11.80;6.53;;;20.80;99.90;;;;;;6036084;23;20022;-91
2022/08/19 08:12:41;;;;;;;10.63;6.70;;;20.90;99.90;;;;;;6012549;23;20094;-91
2022/08/19 08:15:16;;;;;;;9.13;5.90;;;21.10;99.90;;;;;;6062481;23;20551;-91
2022/08/19 08:17:43;;;;;;;12.48;6.50;;;21.10;99.90;;;;;;6035979;23;20077;-90
2022/08/19 08:20:09;;;;;;;14.88;6.25;;;21.30;99.90;;;;;;6061108;23;20132;-91
2022/08/19 08:25:23;;;;;;;12.80;7.82;;;21.50;99.90;;;;;;6035838;23;20034;-91
2022/08/19 08:27:50;;;;;;;8.57;6.53;;;21.60;99.90;;;;;;6036270;23;20026;-91
2022/08/19 08:30:19;;;;;;;12.07;5.07;;;21.60;99.90;;;;;;6058933;23;20026;-91
2022/08/19 08:32:45;;;;;;;7.18;4.78;;;21.70;99.90;;;;;;6014673;23;20023;-91
2022/08/19 08:35:17;;;;;;;6.75;4.47;;;21.70;99.90;;;;;;6036967;23;20023;-91
2022/08/19 08:37:44;;;;;;;7.45;3.65;;;21.80;99.90;;;;;;6062492;23;20392;-90
2022/08/19 08:40:23;;;;;;;9.48;3.40;;;21.90;99.90;;;;;;6035622;23;20034;-91
2022/08/19 08:43:02;;;;;;;6.43;3.28;;;22.00;99.90;;;;;;6059548;23;20022;-92
2022/08/19 08:45:30;;;;;;;7.30;3.55;;;22.10;99.90;;;;;;6026481;23;20019;-91
2022/08/19 08:48:02;;;;;;;7.20;3.70;;;22.20;99.90;;;;;;6059267;23;20031;-91
2022/08/19 08:50:35;;;;;;;;;;;22.30;99.90;;;;;;6059398;23;20026;-91
2022/08/19 08:53:03;;;;;;;6.03;2.70;;;22.30;99.90;;;;;;6012412;23;19921;-91
2022/08/19 08:55:32;;;;;;;6.15;3.00;;;22.30;99.90;;;;;;6046155;23;20087;-93
2022/08/19 08:58:03;;;;;;;6.75;3.42;;;22.50;99.90;;;;;;6060973;23;20110;-90
2022/08/19 09:00:34;;;;;;;6.43;3.50;;;22.50;99.90;;;;;;6061376;23;20023;-91
2022/08/19 09:03:01;;;;;;;10.98;4.63;;;22.50;99.90;;;;;;6063534;23;20061;-90
2022/08/19 09:05:55;;;;;;;7.93;4.22;;;22.60;99.90;;;;;;6063599;23;20026;-92
2022/08/19 09:08:36;;;;;;;7.43;4.55;;;22.70;99.90;;;;;;6063460;23;20034;-91
2022/08/19 09:11:07;;;;;;;8.45;5.40;;;22.80;99.90;;;;;;6062503;23;20058;-91
2022/08/19 09:13:45;;;;;;;7.85;5.10;;;22.90;99.90;;;;;;6064504;23;20105;-91
2022/08/19 09:16:19;;;;;;;9.15;4.75;;;23.00;99.90;;;;;;6060656;23;20019;-90
2022/08/19 09:18:53;;;;;;;12.75;6.28;;;23.00;99.90;;;;;;6062740;23;20239;-91
2022/08/19 09:21:23;;;;;;;9.90;6.03;;;23.10;99.90;;;;;;6062296;23;20101;-91
2022/08/19 09:23:52;;;;;;;8.57;5.55;;;23.10;99.90;;;;;;6061394;23;20023;-92
2022/08/19 09:26:21;;;;;;;9.80;6.28;;;23.20;99.90;;;;;;6062233;23;20022;-92
2022/08/19 09:28:52;;;;;;;6.70;4.63;;;23.30;99.90;;;;;;6064236;23;20082;-93
2022/08/19 09:31:20;;;;;;;9.52;6.07;;;23.30;99.90;;;;;;6061228;23;20094;-91
2022/08/19 09:33:47;;;;;;;7.20;5.50;;;23.50;99.90;;;;;;6062329;23;20019;-91
2022/08/19 09:36:15;;;;;;;8.77;5.93;;;23.50;99.90;;;;;;6062576;23;20023;-89
2022/08/19 09:38:41;;;;;;;8.73;5.35;;;23.50;99.90;;;;;;6061483;23;20057;-88
2022/08/19 09:41:12;;;;;;;9.13;5.75;;;23.60;99.90;;;;;;6061632;23;20023;-90
2022/08/19 09:43:38;;;;;;;11.32;5.85;;;23.70;99.90;;;;;;6060694;23;20070;-90
2022/08/19 09:46:06;;;;;;;8.55;5.68;;;23.70;99.90;;;;;;6060736;23;20049;-90
2022/08/19 09:48:33;;;;;;;10.02;6.80;;;23.80;99.90;;;;;;6064524;23;20027;-91
2022/08/19 09:51:07;;;;;;;7.75;5.95;;;23.90;99.90;;;;;;6064608;23;20019;-90
2022/08/19 09:53:34;;;;;;;9.88;6.57;;;23.90;99.90;;;;;;6061751;23;20448;-91
2022/08/19 09:56:01;;;;;;;13.95;7.10;;;23.90;99.90;;;;;;6031844;23;20401;-90
2022/08/19 09:58:29;;;;;;;7.70;6.88;;;24.00;99.90;;;;;;6010654;23;20059;-91
2022/08/19 10:00:56;;;;;;;12.57;7.25;;;24.00;99.90;;;;;;6010052;23;20106;-91
2022/08/19 10:03:22;;;;;;;10.48;6.70;;;24.00;99.90;;;;;;6011851;23;20023;-91
2022/08/19 10:05:48;;;;;;;11.60;7.20;;;24.00;99.90;;;;;;6021108;23;20477;-90
2022/08/19 10:08:16;;;;;;;16.27;7.28;;;24.10;99.90;;;;;;6010027;23;20106;-90
2022/08/19 10:10:43;;;;;;;9.27;6.38;;;24.20;99.90;;;;;;6010067;23;20019;-90
2022/08/19 10:13:10;;;;;;;8.23;6.55;;;24.20;99.90;;;;;;6009064;23;20420;-91
2022/08/19 10:15:38;;;;;;;9.13;6.88;;;24.30;99.90;;;;;;6009654;23;20449;-90
2022/08/19 10:18:05;;;;;;;10.43;6.43;;;24.40;99.90;;;;;;6010425;23;20023;-90
2022/08/19 10:20:31;;;;;;;8.90;6.43;;;24.40;99.90;;;;;;6011181;23;20087;-89
2022/08/19 10:22:59;;;;;;;12.52;6.65;;;24.50;99.90;;;;;;6011008;23;20027;-91
2022/08/19 10:25:26;;;;;;;11.43;6.20;;;24.60;99.90;;;;;;6009503;23;20019;-90
2022/08/19 10:27:53;;;;;;;8.23;5.93;;;24.70;99.90;;;;;;6009235;23;20027;-90
2022/08/19 10:30:19;;;;;;;9.00;5.90;;;24.80;99.90;;;;;;6010205;23;20020;-91
2022/08/19 10:32:45;;;;;;;10.00;6.45;;;24.90;99.90;;;;;;6009531;23;20345;-90
2022/08/19 10:35:12;;;;;;;8.48;6.75;;;24.90;99.90;;;;;;6009809;23;20051;-91
2022/08/19 10:37:39;;;;;;;8.30;6.38;;;24.90;99.90;;;;;;6009576;23;20030;-90
2022/08/19 10:40:07;;;;;;;9.55;5.82;;;25.00;99.90;;;;;;6011604;23;20031;-92
2022/08/19 10:42:41;;;;;;;9.25;6.15;;;25.00;99.90;;;;;;6010616;23;20025;-93
2022/08/19 10:45:09;;;;;;;9.88;5.80;;;25.10;99.90;;;;;;6012154;23;20019;-90
2022/08/19 10:47:38;;;;;;;11.68;6.53;;;25.10;99.90;;;;;;6008955;23;20038;-91
2022/08/19 10:52:50;;;;;;;14.40;7.55;;;25.20;99.90;;;;;;6011193;23;20023;-91
2022/08/19 10:58:31;;;;;;;10.75;7.57;;;25.30;99.90;;;;;;6012754;23;20023;-93
2022/08/19 11:01:01;;;;;;;11.82;7.43;;;25.30;99.90;;;;;;6012030;23;20023;-91
2022/08/19 11:03:31;;;;;;;8.90;6.88;;;25.40;99.90;;;;;;6009565;23;20038;-91
2022/08/19 11:06:00;;;;;;;9.90;7.82;;;25.30;99.90;;;;;;6011255;23;20019;-91
2022/08/19 11:08:26;;;;;;;11.15;7.32;;;25.10;99.90;;;;;;6009640;23;20090;-90
2022/08/19 11:10:58;;;;;;;9.45;7.65;;;25.00;99.90;;;;;;6010951;23;20074;-90
2022/08/19 11:13:25;;;;;;;12.23;8.60;;;24.80;99.90;;;;;;6010099;23;20023;-90
2022/08/19 11:16:07;;;;;;;10.60;8.23;;;24.80;99.90;;;;;;6009898;23;20577;-90
2022/08/19 11:18:40;;;;;;;9.57;7.43;;;24.80;99.90;;;;;;6009721;23;20026;-90
2022/08/19 11:21:10;;;;;;;10.18;7.10;;;24.70;99.90;;;;;;6010662;23;20026;-91
2022/08/19 11:23:36;;;;;;;10.95;7.93;;;24.90;99.90;;;;;;6009196;23;20036;-90
2022/08/19 11:26:04;;;;;;;10.05;7.63;;;24.90;99.90;;;;;;6011194;23;20016;-90
2022/08/19 11:28:32;;;;;;;12.05;8.27;;;24.90;99.90;;;;;;6010013;23;20385;-90
2022/08/19 11:30:58;;;;;;;11.13;7.90;;;24.80;99.90;;;;;;6009826;23;20019;-89
2022/08/19 11:33:26;;;;;;;10.85;8.43;;;25.00;99.90;;;;;;6012724;23;20134;-90
2022/08/19 11:35:56;;;;;;;11.70;8.20;;;25.20;99.90;;;;;;6010478;23;20024;-90
2022/08/19 11:38:23;;;;;;;10.80;7.97;;;25.40;99.90;;;;;;6009308;23;20225;-90
2022/08/19 11:40:56;;;;;;;10.30;6.78;;;25.60;99.90;;;;;;6009834;23;20019;-89
2022/08/19 11:43:25;;;;;;;11.73;7.45;;;25.70;99.90;;;;;;6009049;23;20567;-92
2022/08/19 11:45:51;;;;;;;11.98;7.60;;;26.00;99.90;;;;;;6008883;23;20019;-90
2022/08/19 11:48:31;;;;;;;;;;;;;;;;;;;;;
2022/08/19 11:50:57;;;;;;;9.70;7.15;;;26.10;99.90;;;;;;6009933;23;20019;-89
2022/08/19 11:53:23;;;;;;;11.68;8.00;;;26.10;99.90;;;;;;6012024;23;20352;-91
2022/08/19 11:55:50;;;;;;;10.18;7.78;;;26.20;99.90;;;;;;6008178;23;20091;-90
2022/08/19 11:58:17;;;;;;;11.10;8.65;;;26.10;99.90;;;;;;6007570;23;20055;-90
2022/08/19 12:00:44;;;;;;;10.70;8.30;;;26.00;99.90;;;;;;6009710;23;20023;-90
2022/08/19 12:03:14;;;;;;;10.15;7.97;;;26.00;99.90;;;;;;6011997;23;20019;-92
2022/08/19 12:05:46;;;;;;;9.95;7.00;;;25.90;99.90;;;;;;6012675;23;20029;-94
2022/08/19 12:08:16;;;;;;;9.63;7.85;;;25.80;99.90;;;;;;6008421;23;20027;-93
2022/08/19 12:14:47;;;;;;;10.27;7.45;;;25.90;99.90;;;;;;5953985;23;20023;-95
2022/08/19 12:17:56;;;;;;;13.85;8.60;;;26.20;99.90;;;;;;5914692;23;20521;-95
2022/08/19 12:20:52;;;;;;;10.00;8.23;;;26.00;99.90;;;;;;5988432;23;20049;-96
2022/08/19 12:23:54;;;;;;;11.00;7.55;;;26.00;99.90;;;;;;6009591;23;20023;-95
2022/08/19 12:26:43;;;;;;;10.18;8.23;;;26.00;99.90;;;;;;6009772;23;20491;-96
2022/08/19 12:29:28;;;;;;;15.23;8.00;;;26.00;99.90;;;;;;6028523;23;20069;-96
2022/08/19 12:32:21;;;;;;;12.95;8.40;;;26.10;99.90;;;;;;6010157;23;20075;-96
2022/08/19 12:35:20;;;;;;;14.20;7.63;;;26.10;99.90;;;;;;6004481;23;20476;-95
2022/08/19 12:38:49;;;;;;;14.02;7.90;;;26.10;99.90;;;;;;6009716;23;20023;-96
2022/08/19 12:41:18;;;;;;;11.35;8.48;;;26.20;99.90;;;;;;6004434;23;20034;-96
2022/08/19 12:44:12;;;;;;;12.85;8.63;;;26.30;99.90;;;;;;6009812;23;20023;-96
2022/08/19 12:46:50;;;;;;;10.45;7.82;;;26.10;99.90;;;;;;5990529;23;20015;-95
2022/08/19 12:52:57;;;;;;;13.57;8.05;;;26.20;99.90;;;;;;5986504;23;20030;-95
2022/08/19 12:55:59;;;;;;;9.00;6.35;;;26.10;99.90;;;;;;6015727;23;20103;-94
2022/08/19 12:59:11;;;;;;;8.82;6.38;;;26.30;99.90;;;;;;6034512;23;20102;-95
2022/08/19 13:02:11;;;;;;;10.50;6.70;;;26.40;99.90;;;;;;6034937;23;20026;-95
2022/08/19 13:05:16;;;;;;;8.88;6.32;;;26.40;99.90;;;;;;6010399;23;20034;-93
2022/08/19 13:08:07;;;;;;;11.65;7.03;;;26.50;99.90;;;;;;5939814;23;20027;-93
2022/08/19 13:10:57;;;;;;;14.57;7.53;;;26.40;99.90;;;;;;6012745;23;20083;-94
2022/08/19 13:13:32;;;;;;;8.63;6.35;;;26.20;99.90;;;;;;6011905;23;20031;-95
2022/08/19 13:16:31;;;;;;;11.52;7.05;;;26.20;99.90;;;;;;6010825;23;20019;-94
2022/08/19 13:22:41;;;;;;;10.82;5.93;;;26.10;99.90;;;;;;5988921;23;20058;-94
2022/08/19 13:25:37;;;;;;;8.95;7.38;;;26.10;99.90;;;;;;5991650;23;20075;-93
2022/08/19 13:34:52;;;;;;;13.05;7.60;;;25.90;99.90;;;;;;6011089;23;20533;-94
2022/08/19 13:38:04;;;;;;;12.18;7.30;;;26.00;99.90;;;;;;6011578;23;20475;-94